Time;durP1;ratioP1;P1;durP2;ratioP2;P2;SDS_P1;SDS_P2;PMS_P1;PMS_P2;Temp;Humidity;BMP_temperature;BMP_pressure;BME280_temperature;BME280_humidity;BME280_pressure;Samples;Min_cycle;Max_cycle;Signal;HPM_P1;HPM_P2
2022/04/22 00:05:31;;;;;;;14.32;10.40;;;10.20;99.90;;;;;;15548423;22;20047;-81
2022/04/22 00:11:33;;;;;;;16.35;10.23;;;10.10;99.90;;;;;;15544545;22;20030;-81
2022/04/22 00:17:42;;;;;;;16.83;11.52;;;10.10;99.90;;;;;;15547198;22;20020;-83
2022/04/22 00:23:44;;;;;;;17.08;12.57;;;10.10;99.90;;;;;;15547326;22;20452;-83
2022/04/22 00:29:49;;;;;;;19.58;14.55;;;10.10;99.90;;;;;;15550947;22;20069;-83
2022/04/22 00:35:51;;;;;;;19.02;14.75;;;10.00;99.90;;;;;;15549937;22;20802;-83
2022/04/22 00:41:52;;;;;;;19.20;15.70;;;10.00;99.90;;;;;;15546058;22;20059;-82
2022/04/22 00:47:54;;;;;;;19.95;14.80;;;9.90;99.90;;;;;;15548948;22;20035;-83
2022/04/22 00:53:56;;;;;;;18.75;16.00;;;9.90;99.90;;;;;;15552306;22;20574;-83
2022/04/22 00:59:59;;;;;;;19.45;15.90;;;9.80;99.90;;;;;;15554603;22;20134;-83
2022/04/22 01:12:21;;;;;;;19.55;15.13;;;9.80;99.90;;;;;;15552369;22;20051;-81
2022/04/22 01:18:23;;;;;;;21.15;16.48;;;9.70;99.90;;;;;;15551253;22;20024;-80
2022/04/22 01:24:25;;;;;;;23.75;17.83;;;9.60;99.90;;;;;;15555212;22;20137;-83
2022/04/22 01:30:28;;;;;;;24.27;17.80;;;9.60;99.90;;;;;;15552685;22;20373;-83
2022/04/22 01:36:30;;;;;;;19.67;15.48;;;9.60;99.90;;;;;;15552734;22;20016;-81
2022/04/22 01:42:31;;;;;;;21.50;15.98;;;9.50;99.90;;;;;;15554807;22;20126;-81
2022/04/22 01:48:33;;;;;;;21.98;17.20;;;9.40;99.90;;;;;;15550435;22;20134;-83
2022/04/22 01:54:35;;;;;;;23.05;17.02;;;9.30;99.90;;;;;;15550748;22;20109;-81
2022/04/22 02:00:37;;;;;;;23.20;18.13;;;9.20;99.90;;;;;;15554145;22;20058;-81
2022/04/22 02:06:39;;;;;;;23.33;17.88;;;9.00;99.90;;;;;;15551520;22;20093;-81
2022/04/22 02:12:41;;;;;;;22.35;17.45;;;9.00;99.90;;;;;;15551286;22;20077;-83
2022/04/22 02:18:43;;;;;;;26.02;19.65;;;9.00;99.90;;;;;;15559560;22;20097;-81
2022/04/22 02:24:45;;;;;;;28.27;19.63;;;8.90;99.90;;;;;;15548723;22;20356;-81
2022/04/22 02:30:47;;;;;;;25.98;20.13;;;8.90;99.90;;;;;;15551014;22;20633;-83
2022/04/22 02:36:50;;;;;;;26.30;20.10;;;9.00;99.90;;;;;;15552179;22;20419;-82
2022/04/22 02:49:12;;;;;;;26.92;19.92;;;8.80;99.90;;;;;;15550445;22;20734;-83
2022/04/22 02:55:14;;;;;;;31.95;22.27;;;8.90;99.90;;;;;;15549890;22;20484;-83
2022/04/22 03:01:16;;;;;;;30.75;21.63;;;8.80;99.90;;;;;;15554588;22;20027;-82
2022/04/22 03:07:18;;;;;;;26.65;20.45;;;8.80;99.90;;;;;;15560297;22;20035;-81
2022/04/22 03:13:20;;;;;;;32.80;22.52;;;8.90;99.90;;;;;;15554131;22;20567;-81
2022/04/22 03:19:22;;;;;;;28.55;21.20;;;8.90;99.90;;;;;;15549368;22;20194;-82
2022/04/22 03:25:24;;;;;;;27.90;21.48;;;9.00;99.90;;;;;;15550507;22;20030;-80
2022/04/22 03:31:26;;;;;;;24.13;17.63;;;8.90;99.90;;;;;;15551417;22;20107;-81
2022/04/22 03:37:28;;;;;;;28.88;20.75;;;9.00;99.90;;;;;;15550759;22;20024;-83
2022/04/22 03:43:30;;;;;;;26.90;20.13;;;9.00;99.90;;;;;;15554220;22;20027;-81
2022/04/22 03:49:33;;;;;;;27.67;20.13;;;8.80;99.90;;;;;;15552775;22;20112;-80
2022/04/22 03:55:35;;;;;;;27.77;21.08;;;8.80;99.90;;;;;;15552518;22;20031;-81
2022/04/22 04:01:37;;;;;;;30.63;20.77;;;8.70;99.90;;;;;;15553046;22;20054;-81
2022/04/22 04:07:39;;;;;;;33.45;23.13;;;8.70;99.90;;;;;;15556384;22;20034;-82
2022/04/22 04:26:24;;;;;;;26.35;18.30;;;8.70;99.90;;;;;;15577674;22;20023;-81
2022/04/22 04:32:26;;;;;;;24.45;17.35;;;8.70;99.90;;;;;;15536939;22;20027;-82
2022/04/22 04:38:28;;;;;;;23.42;16.60;;;8.70;99.90;;;;;;15553628;22;20153;-81
2022/04/22 04:44:30;;;;;;;22.48;14.52;;;8.60;99.90;;;;;;15554033;22;20088;-82
2022/04/22 04:50:33;;;;;;;20.98;13.75;;;8.60;99.90;;;;;;15555491;22;20094;-84
2022/04/22 04:56:34;;;;;;;19.02;13.75;;;8.60;99.90;;;;;;15552186;22;20058;-82
2022/04/22 05:02:37;;;;;;;19.15;12.60;;;8.70;99.90;;;;;;15550618;22;20457;-81
2022/04/22 05:08:39;;;;;;;18.00;12.27;;;8.70;99.90;;;;;;15550193;22;20027;-82
2022/04/22 05:14:41;;;;;;;18.23;10.77;;;8.70;99.90;;;;;;15545673;22;20123;-81
2022/04/22 05:20:43;;;;;;;13.20;9.85;;;8.60;99.90;;;;;;15554837;22;20147;-80
2022/04/22 05:26:45;;;;;;;12.32;8.77;;;8.60;99.90;;;;;;15549753;22;20024;-80
2022/04/22 05:32:49;;;;;;;14.40;8.30;;;8.60;99.90;;;;;;15522877;22;20165;-79
2022/04/22 05:38:52;;;;;;;12.60;7.45;;;8.50;99.90;;;;;;15551875;22;20051;-80
2022/04/22 05:44:54;;;;;;;9.45;6.57;;;8.50;99.90;;;;;;15555069;22;20525;-81
2022/04/22 05:50:56;;;;;;;12.43;6.47;;;8.50;99.90;;;;;;15554500;22;20460;-81
2022/04/22 05:56:58;;;;;;;8.85;5.50;;;8.50;99.90;;;;;;15555361;22;20117;-80
2022/04/22 06:03:00;;;;;;;10.57;5.60;;;8.40;99.90;;;;;;15551526;22;20557;-81
2022/04/22 06:15:23;;;;;;;9.27;5.07;;;8.70;99.90;;;;;;15550787;22;20066;-82
2022/04/22 06:21:25;;;;;;;9.25;4.70;;;8.90;99.90;;;;;;15547296;22;20072;-80
2022/04/22 06:27:29;;;;;;;8.55;3.80;;;8.90;99.90;;;;;;15550497;22;20097;-82
2022/04/22 06:33:31;;;;;;;10.13;4.45;;;9.10;99.90;;;;;;15524458;22;20507;-83
2022/04/22 06:45:46;;;;;;;8.43;3.63;;;9.10;99.90;;;;;;15554627;22;20020;-83
2022/04/22 06:45:55;;;;;;;8.40;4.22;;;9.40;99.90;;;;;;15554812;22;20046;-80
2022/04/22 06:51:58;;;;;;;8.70;4.05;;;9.50;99.90;;;;;;15551651;22;20364;-81
2022/04/22 06:58:01;;;;;;;8.23;4.38;;;9.70;99.90;;;;;;15550026;22;20109;-80
2022/04/22 07:04:05;;;;;;;8.13;4.43;;;9.60;99.90;;;;;;15551076;22;20105;-81
2022/04/22 07:10:07;;;;;;;7.50;4.13;;;9.60;99.90;;;;;;15548348;22;20052;-80
2022/04/22 07:16:12;;;;;;;9.32;4.68;;;10.00;99.90;;;;;;15554665;22;20431;-81
2022/04/22 07:22:15;;;;;;;7.05;4.22;;;10.10;99.90;;;;;;15551716;22;20034;-82
2022/04/22 07:28:18;;;;;;;6.43;4.35;;;10.00;99.90;;;;;;15549841;22;20097;-82
2022/04/22 07:34:20;;;;;;;10.52;4.15;;;10.00;99.90;;;;;;15558721;22;20182;-82
2022/04/22 07:40:22;;;;;;;7.43;4.20;;;10.00;99.90;;;;;;15557786;22;20146;-80
2022/04/22 07:46:57;;;;;;;5.80;3.70;;;10.10;99.90;;;;;;15575146;22;20018;-82
2022/04/22 07:53:00;;;;;;;8.77;3.65;;;10.20;99.90;;;;;;15588223;22;20083;-82
2022/04/22 07:59:02;;;;;;;7.57;3.50;;;10.40;99.90;;;;;;15570259;22;20027;-81
2022/04/22 08:05:05;;;;;;;9.77;3.58;;;10.60;99.90;;;;;;15568891;22;20019;-81
2022/04/22 08:11:11;;;;;;;7.45;3.83;;;10.80;99.90;;;;;;15569582;22;20646;-83
2022/04/22 08:17:15;;;;;;;7.88;4.10;;;11.00;99.90;;;;;;15549154;22;20027;-81
2022/04/22 08:23:20;;;;;;;10.23;4.97;;;11.20;99.90;;;;;;15551490;22;20032;-83
2022/04/22 08:29:22;;;;;;;7.05;4.07;;;11.40;99.90;;;;;;15547221;22;20709;-83
2022/04/22 08:35:24;;;;;;;9.45;4.43;;;11.90;99.90;;;;;;15543297;22;20027;-83
2022/04/22 08:41:26;;;;;;;7.50;4.10;;;12.10;99.90;;;;;;15544289;22;20058;-84
2022/04/22 08:53:52;;;;;;;9.90;4.60;;;12.60;99.90;;;;;;15550635;22;20153;-83
2022/04/22 09:00:07;;;;;;;9.43;4.47;;;12.80;99.90;;;;;;15545930;22;20058;-82
2022/04/22 09:06:10;;;;;;;8.95;4.65;;;12.50;99.90;;;;;;15544017;22;20016;-82
2022/04/22 09:12:13;;;;;;;9.75;4.85;;;12.60;99.90;;;;;;15550606;22;20024;-81
2022/04/22 09:18:15;;;;;;;8.50;4.30;;;12.60;99.90;;;;;;15554884;22;20020;-82
2022/04/22 09:24:18;;;;;;;7.30;4.32;;;12.90;99.90;;;;;;15553891;22;20028;-83
2022/04/22 09:30:20;;;;;;;9.68;4.60;;;13.70;99.90;;;;;;15551681;22;20059;-81
2022/04/22 09:42:46;;;;;;;10.85;4.35;;;13.90;99.90;;;;;;15553767;22;20035;-83
2022/04/22 09:48:49;;;;;;;7.47;4.32;;;13.50;99.90;;;;;;15553726;22;20475;-82
2022/04/22 09:54:56;;;;;;;7.90;4.07;;;13.30;99.90;;;;;;15555112;22;20066;-83
2022/04/22 10:01:07;;;;;;;6.63;4.22;;;12.90;99.90;;;;;;15517419;22;20073;-82
2022/04/22 10:07:11;;;;;;;5.90;3.55;;;13.10;99.90;;;;;;15549770;22;20030;-83
2022/04/22 10:13:17;;;;;;;9.05;4.25;;;13.70;99.90;;;;;;15548914;22;20034;-83
2022/04/22 10:19:26;;;;;;;9.52;4.25;;;14.10;99.90;;;;;;15554596;22;20020;-83
2022/04/22 10:25:32;;;;;;;7.97;4.00;;;14.80;99.90;;;;;;15557003;22;20109;-82
2022/04/22 10:31:34;;;;;;;8.93;3.80;;;14.80;99.90;;;;;;15550656;22;20038;-82
2022/04/22 10:37:38;;;;;;;7.75;4.45;;;15.10;99.90;;;;;;15554707;22;20024;-84
2022/04/22 10:43:41;;;;;;;8.27;3.90;;;15.30;99.90;;;;;;15553938;22;20032;-83
2022/04/22 10:49:44;;;;;;;9.63;4.15;;;15.20;99.90;;;;;;15555123;22;20043;-83
2022/04/22 10:55:46;;;;;;;10.90;4.28;;;15.60;99.90;;;;;;15553433;22;20028;-84
2022/04/22 11:02:29;;;;;;;6.78;4.20;;;15.80;99.90;;;;;;15541282;22;20713;-82
2022/04/22 11:08:41;;;;;;;10.50;4.85;;;15.60;99.90;;;;;;15579922;22;20028;-84
2022/04/22 11:14:47;;;;;;;10.93;5.07;;;14.80;99.90;;;;;;15592639;22;20439;-82
2022/04/22 11:21:05;;;;;;;8.95;6.03;;;14.70;99.90;;;;;;15555478;22;20101;-83
2022/04/22 11:27:11;;;;;;;8.35;5.07;;;15.00;99.90;;;;;;15548921;22;20134;-83
2022/04/22 11:33:23;;;;;;;8.95;5.50;;;15.00;99.90;;;;;;15549055;22;20170;-84
2022/04/22 11:39:26;;;;;;;9.52;5.80;;;14.70;99.90;;;;;;15551093;22;20054;-83
2022/04/22 11:45:28;;;;;;;12.27;6.90;;;14.50;99.90;;;;;;15549310;22;20586;-82
2022/04/22 11:51:36;;;;;;;12.05;6.18;;;14.30;99.90;;;;;;15547267;22;20024;-82
2022/04/22 11:57:39;;;;;;;10.65;6.88;;;14.10;99.90;;;;;;15550488;22;20590;-82
2022/04/22 12:10:04;;;;;;;10.38;7.32;;;14.10;99.90;;;;;;15539879;22;20589;-82
2022/04/22 12:16:06;;;;;;;11.45;7.53;;;14.60;99.90;;;;;;15549590;22;20024;-82
2022/04/22 12:22:08;;;;;;;14.38;8.88;;;15.30;99.90;;;;;;15550065;22;20056;-84
2022/04/22 12:28:13;;;;;;;11.80;8.27;;;15.40;99.90;;;;;;15542903;22;20111;-84
2022/04/22 12:34:34;;;;;;;13.52;9.02;;;15.50;99.90;;;;;;15518210;22;20106;-82
2022/04/22 12:40:47;;;;;;;17.27;8.95;;;14.80;99.90;;;;;;15546902;22;20090;-82
2022/04/22 12:53:26;;;;;;;13.13;9.48;;;14.20;99.90;;;;;;15548244;22;20157;-82
2022/04/22 12:59:49;;;;;;;15.95;10.52;;;13.90;99.90;;;;;;15547410;22;20581;-84
2022/04/22 13:05:51;;;;;;;13.65;9.80;;;14.20;99.90;;;;;;15546983;22;20019;-84
2022/04/22 13:11:53;;;;;;;14.38;10.50;;;14.90;99.90;;;;;;15551594;22;20110;-84
2022/04/22 13:17:54;;;;;;;13.25;9.98;;;15.40;99.90;;;;;;15548586;22;20070;-82
2022/04/22 13:23:56;;;;;;;13.88;10.60;;;16.30;99.90;;;;;;15546346;22;20035;-84
2022/04/22 13:29:58;;;;;;;12.77;10.00;;;16.80;99.90;;;;;;15546848;22;20130;-84
2022/04/22 13:36:05;;;;;;;12.90;10.70;;;16.90;99.90;;;;;;15551415;22;20030;-84
2022/04/22 13:42:07;;;;;;;14.23;9.90;;;16.20;99.90;;;;;;15545436;22;20147;-82
2022/04/22 13:54:29;;;;;;;24.15;11.50;;;15.00;99.90;;;;;;15548786;22;20174;-84
2022/04/22 14:00:31;;;;;;;28.08;12.27;;;14.80;99.90;;;;;;15554616;22;20051;-82
2022/04/22 14:06:33;;;;;;;17.20;11.07;;;14.70;99.90;;;;;;15540483;22;20035;-84
2022/04/22 14:12:35;;;;;;;15.70;11.00;;;14.40;99.90;;;;;;15548534;22;20061;-82
2022/04/22 14:18:37;;;;;;;23.35;11.45;;;14.30;99.90;;;;;;15551406;22;20031;-84
2022/04/22 14:24:40;;;;;;;14.00;10.48;;;14.30;99.90;;;;;;15557564;22;20031;-83
2022/04/22 14:30:44;;;;;;;12.15;9.40;;;14.30;99.90;;;;;;15552857;22;20023;-82
2022/04/22 14:36:49;;;;;;;14.68;9.85;;;14.40;99.90;;;;;;15551548;22;21062;-83
2022/04/22 14:42:51;;;;;;;13.90;8.90;;;14.30;99.90;;;;;;15561374;22;20074;-83
2022/04/22 14:48:52;;;;;;;10.63;8.02;;;14.30;99.90;;;;;;15551698;22;20034;-82
2022/04/22 14:54:54;;;;;;;11.68;8.43;;;14.20;99.90;;;;;;15549097;22;20105;-84
2022/04/22 15:00:58;;;;;;;14.70;8.65;;;14.30;99.90;;;;;;15550093;22;20168;-84
2022/04/22 15:07:00;;;;;;;9.38;7.18;;;14.50;99.90;;;;;;15548365;22;20157;-84
2022/04/22 15:13:02;;;;;;;10.02;7.18;;;14.70;99.90;;;;;;15550843;22;20077;-83
2022/04/22 15:25:25;;;;;;;11.35;6.70;;;14.60;99.90;;;;;;15547911;22;20416;-84
2022/04/22 15:31:27;;;;;;;9.98;7.38;;;14.40;99.90;;;;;;15552486;22;20027;-82
2022/04/22 15:37:29;;;;;;;11.35;6.65;;;14.20;99.90;;;;;;15554371;22;20146;-82
2022/04/22 15:43:50;;;;;;;11.25;7.15;;;14.20;99.90;;;;;;15547202;22;20149;-84
2022/04/22 15:49:52;;;;;;;9.75;6.40;;;14.30;99.90;;;;;;15549100;22;20153;-84
2022/04/22 15:55:54;;;;;;;12.05;7.05;;;14.30;99.90;;;;;;15551061;22;20027;-84
2022/04/22 16:01:56;;;;;;;8.73;5.63;;;14.70;99.90;;;;;;15550329;22;20114;-84
2022/04/22 16:07:59;;;;;;;10.63;4.97;;;15.30;99.90;;;;;;15552324;22;20421;-83
2022/04/22 16:20:23;;;;;;;6.47;3.60;;;15.50;99.90;;;;;;15548573;22;20049;-83
2022/04/22 16:26:27;;;;;;;6.63;3.00;;;14.80;99.90;;;;;;15549248;22;20129;-84
2022/04/22 16:32:29;;;;;;;6.13;2.80;;;14.40;99.90;;;;;;15547394;22;20094;-82
2022/04/22 16:38:31;;;;;;;4.47;2.70;;;14.10;99.90;;;;;;15549263;22;20105;-81
2022/04/22 16:44:36;;;;;;;5.25;2.70;;;14.00;99.90;;;;;;15548569;22;20488;-84
2022/04/22 16:50:40;;;;;;;3.80;2.35;;;14.00;99.90;;;;;;15542217;22;20376;-82
2022/04/22 16:56:42;;;;;;;4.82;3.00;;;13.90;99.90;;;;;;15540774;22;20066;-82
2022/04/22 17:02:47;;;;;;;5.32;2.88;;;13.80;99.90;;;;;;15542371;22;20146;-82
2022/04/22 17:08:52;;;;;;;6.93;2.80;;;13.70;99.90;;;;;;15552148;22;20019;-84
2022/04/22 17:27:36;;;;;;;6.85;3.22;;;13.50;99.90;;;;;;15550684;22;20550;-83
2022/04/22 17:33:38;;;;;;;5.30;3.55;;;13.50;99.90;;;;;;15555220;22;20023;-84
2022/04/22 17:39:40;;;;;;;6.47;3.75;;;13.40;99.90;;;;;;15557525;22;20095;-82
2022/04/22 17:45:42;;;;;;;4.95;3.63;;;13.30;99.90;;;;;;15559521;22;20016;-82
2022/04/22 17:51:46;;;;;;;7.05;3.60;;;13.30;99.90;;;;;;15558601;22;20431;-82
2022/04/22 17:57:49;;;;;;;5.80;3.53;;;13.30;99.90;;;;;;15535239;22;20023;-83
2022/04/22 18:03:51;;;;;;;6.82;4.07;;;13.20;99.90;;;;;;15561196;22;20020;-82
2022/04/22 18:09:52;;;;;;;7.53;3.70;;;13.00;99.90;;;;;;15576958;22;20031;-82
2022/04/22 18:16:12;;;;;;;7.90;4.72;;;13.00;99.90;;;;;;15565423;22;20027;-83
2022/04/22 18:22:15;;;;;;;10.15;6.80;;;12.80;99.90;;;;;;15573555;22;20069;-83
2022/04/22 18:28:18;;;;;;;9.50;7.18;;;12.80;99.90;;;;;;15564269;22;20050;-84
2022/04/22 18:34:19;;;;;;;9.68;6.93;;;12.80;99.90;;;;;;15554156;22;20153;-83
2022/04/22 18:40:21;;;;;;;45.33;20.88;;;12.70;99.90;;;;;;15553795;22;20146;-84
2022/04/22 18:46:26;;;;;;;16.95;9.63;;;12.60;99.90;;;;;;15549346;22;20518;-82
2022/04/22 18:52:30;;;;;;;11.82;7.50;;;12.70;99.90;;;;;;15550283;22;20062;-83
2022/04/22 18:58:32;;;;;;;11.45;7.53;;;12.50;99.90;;;;;;15552128;22;20118;-82
2022/04/22 19:04:34;;;;;;;12.10;7.18;;;12.60;99.90;;;;;;15548892;22;20141;-84
2022/04/22 19:10:40;;;;;;;10.88;7.38;;;12.60;99.90;;;;;;15546728;22;20027;-83
2022/04/22 19:16:43;;;;;;;14.43;7.75;;;12.60;99.90;;;;;;15546585;22;20071;-83
2022/04/22 19:22:44;;;;;;;12.93;7.25;;;12.50;99.90;;;;;;15545467;22;20520;-83
2022/04/22 19:28:46;;;;;;;12.20;7.43;;;12.50;99.90;;;;;;15553517;22;20443;-84
2022/04/22 19:34:48;;;;;;;10.95;6.95;;;12.40;99.90;;;;;;15546495;22;20051;-84
2022/04/22 19:40:51;;;;;;;11.55;7.68;;;12.20;99.90;;;;;;15551414;22;20153;-83
2022/04/22 19:46:53;;;;;;;9.75;8.00;;;12.20;99.90;;;;;;15549046;22;20030;-82
2022/04/22 19:52:57;;;;;;;12.13;8.27;;;12.10;99.90;;;;;;15552376;22;20077;-83
2022/04/22 19:59:01;;;;;;;;;;;12.10;99.90;;;;;;15550066;22;20023;-82
2022/04/22 20:05:03;;;;;;;11.50;7.82;;;12.10;99.90;;;;;;15515393;22;19927;-84
2022/04/22 20:11:05;;;;;;;14.65;9.50;;;12.00;99.90;;;;;;15550821;22;20118;-83
2022/04/22 20:17:08;;;;;;;14.95;9.07;;;12.00;99.90;;;;;;15548082;22;20124;-83
2022/04/22 20:23:10;;;;;;;13.65;10.27;;;11.90;99.90;;;;;;15550287;22;20027;-82
2022/04/22 20:29:12;;;;;;;16.10;10.98;;;11.80;99.90;;;;;;15548099;22;20237;-84
2022/04/22 20:41:38;;;;;;;18.83;12.30;;;11.70;99.90;;;;;;15550777;22;20110;-82
2022/04/22 20:47:42;;;;;;;;;;;11.70;99.90;;;;;;15550673;22;20921;-83
2022/04/22 20:53:47;;;;;;;17.70;12.30;;;11.70;99.90;;;;;;15514082;22;19966;-82
2022/04/22 20:59:50;;;;;;;19.83;13.00;;;11.60;99.90;;;;;;15554297;22;20027;-82
2022/04/22 21:05:52;;;;;;;17.65;12.93;;;11.60;99.90;;;;;;15547663;22;20095;-83
2022/04/22 21:11:54;;;;;;;17.85;13.50;;;11.60;99.90;;;;;;15553593;22;20098;-82
2022/04/22 21:17:57;;;;;;;18.60;13.60;;;11.50;99.90;;;;;;15556735;22;20062;-83
2022/04/22 21:23:59;;;;;;;19.63;13.57;;;11.50;99.90;;;;;;15559253;22;20097;-83
2022/04/22 21:30:02;;;;;;;18.83;14.07;;;11.40;99.90;;;;;;15562062;22;20109;-81
2022/04/22 21:36:04;;;;;;;20.02;14.18;;;11.40;99.90;;;;;;15562269;22;20024;-83
2022/04/22 21:42:07;;;;;;;17.98;14.13;;;11.30;99.90;;;;;;15566505;22;20023;-82
2022/04/22 21:48:10;;;;;;;21.13;14.52;;;11.30;99.90;;;;;;15558050;22;20023;-82
2022/04/22 21:54:12;;;;;;;18.75;14.27;;;11.20;99.90;;;;;;15590310;22;20011;-83
2022/04/22 22:00:20;;;;;;;21.85;15.55;;;11.10;99.90;;;;;;15589227;22;20101;-83
2022/04/22 22:06:24;;;;;;;18.52;14.38;;;11.10;99.90;;;;;;15559836;22;20567;-81
2022/04/22 22:12:25;;;;;;;19.63;15.20;;;11.10;99.90;;;;;;15551482;22;20023;-82
2022/04/22 22:18:28;;;;;;;22.02;16.13;;;11.00;99.90;;;;;;15556288;22;20027;-83
2022/04/22 22:24:29;;;;;;;19.23;15.20;;;11.00;99.90;;;;;;15555226;22;20023;-83
2022/04/22 22:30:31;;;;;;;19.42;14.57;;;11.00;99.90;;;;;;15525538;22;20142;-82
2022/04/22 22:36:37;;;;;;;20.65;15.43;;;10.90;99.90;;;;;;15549531;22;20483;-84
2022/04/22 22:42:39;;;;;;;19.02;14.90;;;10.80;99.90;;;;;;15550562;22;20094;-82
2022/04/22 22:48:41;;;;;;;19.98;14.73;;;10.90;99.90;;;;;;15551659;22;20051;-81
2022/04/22 22:54:43;;;;;;;19.42;15.02;;;10.80;99.90;;;;;;15541334;22;20023;-81
2022/04/22 23:00:45;;;;;;;20.67;13.95;;;10.70;99.90;;;;;;15552876;22;21120;-83
2022/04/22 23:06:47;;;;;;;18.80;13.18;;;10.70;99.90;;;;;;15557166;22;20077;-83
2022/04/22 23:12:52;;;;;;;16.67;13.18;;;10.80;99.90;;;;;;15560458;22;20120;-82
2022/04/22 23:18:54;;;;;;;16.45;13.25;;;10.80;99.90;;;;;;15548521;22;20059;-83
2022/04/22 23:24:56;;;;;;;17.65;13.25;;;10.90;99.90;;;;;;15551096;22;20023;-82
2022/04/22 23:30:58;;;;;;;18.58;13.48;;;10.90;99.90;;;;;;15551705;22;20453;-82
2022/04/22 23:37:01;;;;;;;17.98;13.32;;;10.80;99.90;;;;;;15551594;22;20062;-83
2022/04/22 23:43:04;;;;;;;18.83;13.52;;;10.80;99.90;;;;;;15548636;22;20885;-82
2022/04/22 23:49:06;;;;;;;16.55;13.30;;;10.70;99.90;;;;;;15549472;22;20337;-82
2022/04/22 23:55:08;;;;;;;16.88;13.88;;;10.60;99.90;;;;;;15552608;22;20092;-82
